Terminal Aerodrome Forecast
Issued by NWS

Home | Current Version | Previous Version | Text Only | Print | Product List | Glossary On
Versions: 1 2 3 4 5 6 7 8 9 10 11 12 13 14 15 16 17 18 19 20 21 22 23 24 25 26 27 28 29 30 31 32
000
FTUS43 KDLH 241900 AAA
TAFBRD
TAF AMD
KBRD 241914Z 2419/2518 08010KT 5SM -RA BR BKN008 OVC010
      TEMPO 2419/2422 2SM -RA OVC010
     FM242200 12009KT 3SM -RA BR OVC012
     FM250000 VRB04KT 6SM -RASN BR OVC010
     FM250600 19002KT 3SM BR OVC015
     FM250900 11003KT 3SM BR OVC020
     FM251200 33012KT P6SM VCSH OVC030=

USA.gov is the U.S. government's official web portal to all federal, state and local government web resources and services.